• Join FlightAware (Why Join?)
  • Login
  • US Flag 
12:50AM EDT


 

Airport Tracker/Info


-or-


 

Live Flight TrackerFlight Track Log ✈ N20EW ✈ 21-Apr-2013 ✈ KMCO - KPIE

Flight Track Log - Related Links

Times and Time Zones

All times are in EDT time to prevent confusion due to time zone crossing. See the N20EW flight status page for this flight to view local times or setup timezone preferences in your user account.

Time Position Orientation Groundspeed Altitude Reporting Facility
EDT Latitude Longitude Course Direction KTS MPH feet Rate Location/Type
03:41PM 28.4333 -81.3333 286° West 134 154 700  Level Orlando TRACON
03:43PM 28.4500 -81.4000 286° West 219 252 2,700 1,320 Climbing Orlando TRACON
03:44PM 28.4500 -81.4667 270° West 196 226 4,000 600 Climbing Orlando TRACON
03:45PM 28.4333 -81.5333 254° West 238 274 4,000  Level Orlando TRACON
03:46PM 28.4167 -81.6167 257° West 242 278 4,000 180 Level Orlando TRACON
03:47PM 28.4000 -81.7500 262° West 228 262 4,600 300 Climbing Tampa TRACON
03:48PM 28.3833 -81.8000 249° West 209 241 4,900 120 Climbing Tampa TRACON
03:49PM 28.3667 -81.8500 249° West 212 244 4,900  Level Tampa TRACON
03:50PM 28.3333 -81.9333 246° West 237 273 4,900 -240 Level Tampa TRACON
03:51PM 28.2833 -82.0000 230° Southwest 257 296 4,500 -540 Descending Tampa TRACON
03:52PM 28.2333 -82.0500 221° Southwest 257 296 3,900 -300 Descending Tampa TRACON
03:53PM 28.1833 -82.1000 221° Southwest 244 281 3,900  Level Tampa TRACON
03:54PM 28.1333 -82.1333 210° Southwest 238 274 3,900  Level Tampa TRACON
03:55PM 28.0833 -82.1833 221° Southwest 237 273 3,900  Level Tampa TRACON
03:56PM 28.0333 -82.2333 221° Southwest 234 269 3,900  Level Tampa TRACON
03:57PM 27.9667 -82.2833 214° Southwest 236 272 3,900  Level Tampa TRACON
03:58PM 27.9333 -82.3333 233° Southwest 234 269 3,900  Level Tampa TRACON
03:59PM 27.9500 -82.3833 266° West 230 265 3,900  Level Tampa TRACON
04:00PM 27.9270 -82.4306 266° West  Level Estimated
04:00PM 27.9667 -82.4833 281° West 241 277 3,900  Level Tampa TRACON
04:01PM 27.9667 -82.5500 270° West 228 262 3,900  Level Tampa TRACON
04:02PM 27.9833 -82.6167 286° West 219 252 3,900 -720 Level Tampa TRACON
04:03PM 27.9833 -82.6833 270° West 223 257 2,600 -1,080 Descending Tampa TRACON
04:04PM 27.9667 -82.7500 254° West 197 227 1,800 -720 Descending Tampa TRACON
04:05PM 27.9333 -82.7500 180° South 166 191 1,200 -840 Descending Tampa TRACON
04:06PM 27.9167 -82.7167 119° Southeast 138 159 300 -900 Descending Tampa TRACON
04:08PM 27.9000 -82.6833 North  Level FlightAware Approximate
04:15PM 27.9100 -82.6874 North  Level Estimated
04:16PM 27.9100 -82.6874 North  Level Estimated